createdAt,value
2022-09-14T00:03:20.584Z,15.20
2022-09-14T00:08:23.355Z,15.20
2022-09-14T00:13:26.411Z,15.20
2022-09-14T00:18:29.097Z,15.20
2022-09-14T00:23:31.827Z,15.30
2022-09-14T00:28:55.551Z,15.30
2022-09-14T00:33:58.241Z,15.30
2022-09-14T00:39:01.746Z,15.30
2022-09-14T00:44:13.412Z,15.30
2022-09-14T00:49:33.788Z,15.30
2022-09-14T00:54:39.385Z,15.30
2022-09-14T00:59:43.417Z,15.30
2022-09-14T01:04:46.579Z,15.30
2022-09-14T01:09:58.195Z,15.30
2022-09-14T01:15:13.037Z,15.20
2022-09-14T01:20:26.062Z,15.20
2022-09-14T01:26:03.495Z,15.20
2022-09-14T01:31:11.775Z,15.10
2022-09-14T01:36:16.338Z,15.10
2022-09-14T01:41:29.358Z,15.10
2022-09-14T01:46:40.156Z,15.10
2022-09-14T01:51:45.834Z,15.10
2022-09-14T01:57:25.168Z,15.00
2022-09-14T02:02:41.713Z,15.00
2022-09-14T02:07:44.835Z,15.00
2022-09-14T02:12:47.674Z,15.00
2022-09-14T02:17:50.513Z,15.00
2022-09-14T02:22:53.379Z,15.00
2022-09-14T02:27:56.058Z,15.00
2022-09-14T02:33:14.800Z,15.10
2022-09-14T02:38:25.050Z,15.10
2022-09-14T02:43:57.319Z,15.10
2022-09-14T02:49:08.406Z,15.20
2022-09-14T02:54:24.679Z,15.20
2022-09-14T02:59:27.327Z,15.20
2022-09-14T03:04:30.090Z,15.30
2022-09-14T03:09:32.764Z,15.30
2022-09-14T03:14:35.325Z,15.40
2022-09-14T03:19:37.940Z,15.40
2022-09-14T03:24:40.574Z,15.50
2022-09-14T03:29:43.295Z,15.50
2022-09-14T03:34:45.944Z,15.50
2022-09-14T03:39:48.588Z,15.50
2022-09-14T03:44:51.328Z,15.60
2022-09-14T03:49:54.162Z,15.60
2022-09-14T03:54:56.877Z,15.60
2022-09-14T03:59:59.756Z,15.60
2022-09-14T04:05:02.579Z,15.60
2022-09-14T04:10:07.240Z,15.60
2022-09-14T04:15:10.213Z,15.60
2022-09-14T04:20:12.880Z,15.60
2022-09-14T04:25:15.599Z,15.60
2022-09-14T04:30:18.559Z,15.60
2022-09-14T04:35:21.319Z,15.60
2022-09-14T04:40:24.170Z,15.60
2022-09-14T04:45:29.542Z,15.60
2022-09-14T04:50:33.540Z,15.60
2022-09-14T04:55:38.102Z,15.60
2022-09-14T05:00:41.092Z,15.60
2022-09-14T05:05:44.861Z,15.60
2022-09-14T05:10:47.738Z,15.60
2022-09-14T05:15:51.172Z,15.60
2022-09-14T05:20:53.852Z,15.60
2022-09-14T05:25:56.821Z,15.60
2022-09-14T05:30:59.534Z,15.60
2022-09-14T05:36:08.010Z,15.60
2022-09-14T05:41:15.112Z,15.70
2022-09-14T05:46:22.397Z,15.70
2022-09-14T05:51:26.737Z,15.70
2022-09-14T05:56:30.261Z,15.80
2022-09-14T06:01:33.192Z,15.80
2022-09-14T06:06:35.994Z,15.90
2022-09-14T06:11:38.679Z,15.90
2022-09-14T06:16:41.376Z,15.90
2022-09-14T06:21:44.147Z,16.00
2022-09-14T06:26:46.807Z,16.00
2022-09-14T06:31:49.512Z,16.10
2022-09-14T06:36:52.195Z,16.10
2022-09-14T06:41:54.871Z,16.20
2022-09-14T06:46:57.778Z,16.30
2022-09-14T06:52:01.015Z,16.30
2022-09-14T06:57:03.836Z,16.40
2022-09-14T07:02:06.580Z,16.50
2022-09-14T07:07:09.249Z,16.50
2022-09-14T07:12:12.014Z,16.60
2022-09-14T07:17:16.829Z,16.70
2022-09-14T07:22:19.512Z,16.80
2022-09-14T07:27:22.165Z,16.80
2022-09-14T07:32:24.904Z,16.90
2022-09-14T07:37:29.037Z,17.00
2022-09-14T07:42:32.125Z,17.00
2022-09-14T07:47:34.866Z,17.00
2022-09-14T07:52:38.852Z,17.10
2022-09-14T07:57:55.530Z,17.10
2022-09-14T08:02:58.830Z,17.20
2022-09-14T08:08:02.030Z,17.20
2022-09-14T08:13:04.746Z,17.30
2022-09-14T08:18:07.439Z,17.30
2022-09-14T08:23:11.223Z,17.30
2022-09-14T08:28:13.901Z,17.30
2022-09-14T08:33:16.560Z,17.40
2022-09-14T08:38:19.245Z,17.40
2022-09-14T08:43:25.473Z,17.40
2022-09-14T08:48:37.597Z,17.40
2022-09-14T08:53:42.463Z,17.40
2022-09-14T08:59:33.296Z,17.50
2022-09-14T09:04:53.474Z,17.50
2022-09-14T09:09:58.049Z,17.60
2022-09-14T09:15:05.023Z,17.60
2022-09-14T09:20:16.886Z,17.70
2022-09-14T09:25:42.240Z,17.60
2022-09-14T09:30:45.701Z,17.70
2022-09-14T09:35:49.001Z,17.80
2022-09-14T09:41:07.709Z,17.80
2022-09-14T09:46:11.722Z,17.90
2022-09-14T09:51:29.868Z,17.90
2022-09-14T09:56:55.297Z,17.70
2022-09-14T10:02:18.049Z,17.90
2022-09-14T10:07:22.980Z,17.90
2022-09-14T10:12:26.499Z,17.90
2022-09-14T10:17:29.230Z,17.90
2022-09-14T10:22:41.378Z,17.90
2022-09-14T10:27:53.008Z,18.00
2022-09-14T10:33:02.968Z,18.00
2022-09-14T10:38:20.479Z,18.00
2022-09-14T10:43:29.501Z,18.00
2022-09-14T10:49:12.245Z,18.10
2022-09-14T10:54:37.259Z,18.10
2022-09-14T10:59:48.797Z,18.10
2022-09-14T11:05:16.235Z,18.10
2022-09-14T11:10:46.207Z,18.10
2022-09-14T11:16:15.050Z,18.10
2022-09-14T11:21:47.410Z,18.10
2022-09-14T11:27:01.587Z,18.20
2022-09-14T11:32:46.262Z,18.20
2022-09-14T11:38:02.590Z,18.20
2022-09-14T11:43:13.819Z,18.30
2022-09-14T11:48:41.269Z,18.30
2022-09-14T11:53:43.622Z,18.30
2022-09-14T11:58:47.507Z,18.30
2022-09-14T12:04:11.563Z,18.30
2022-09-14T12:09:24.632Z,18.30
2022-09-14T12:14:27.621Z,18.30
2022-09-14T12:19:31.985Z,18.30
2022-09-14T12:24:34.673Z,18.30
2022-09-14T12:29:41.949Z,18.40
2022-09-14T12:34:44.630Z,18.40
2022-09-14T12:40:24.011Z,18.40
2022-09-14T12:45:50.976Z,18.40
2022-09-14T12:50:54.768Z,18.40
2022-09-14T12:56:05.515Z,18.40
2022-09-14T13:01:54.225Z,18.40
2022-09-14T13:06:59.139Z,18.50
2022-09-14T13:12:08.768Z,18.40
2022-09-14T13:17:14.058Z,18.50
2022-09-14T13:22:23.075Z,18.50
2022-09-14T13:27:34.832Z,18.50
2022-09-14T13:32:44.071Z,18.70
2022-09-14T13:37:48.440Z,18.80
2022-09-14T13:42:51.591Z,18.80
2022-09-14T13:47:55.165Z,18.90
2022-09-14T13:53:02.343Z,18.90
2022-09-14T13:58:14.746Z,18.90
2022-09-14T14:03:30.497Z,19.00
2022-09-14T14:08:39.216Z,19.00
2022-09-14T14:13:43.302Z,18.90
2022-09-14T14:18:57.082Z,18.90
2022-09-14T14:24:55.772Z,18.90
2022-09-14T14:30:16.412Z,18.80
2022-09-14T14:35:22.742Z,18.80
2022-09-14T14:40:27.603Z,18.80
2022-09-14T14:45:35.994Z,18.70
2022-09-14T14:50:39.618Z,18.70
2022-09-14T14:55:42.759Z,18.70
2022-09-14T15:00:46.055Z,18.60
2022-09-14T15:05:49.435Z,18.50
2022-09-14T15:10:57.050Z,18.50
2022-09-14T15:15:59.691Z,18.50
2022-09-14T15:21:02.530Z,18.40
2022-09-14T15:26:05.915Z,18.40
2022-09-14T15:31:08.567Z,18.40
2022-09-14T15:36:11.284Z,18.40
2022-09-14T15:41:13.943Z,18.40
2022-09-14T15:46:16.783Z,18.30
2022-09-14T15:51:19.788Z,18.30
2022-09-14T15:56:22.606Z,18.30
2022-09-14T16:01:25.533Z,18.30
2022-09-14T16:06:29.463Z,18.30
2022-09-14T16:11:33.677Z,18.30
2022-09-14T16:16:37.564Z,18.20
2022-09-14T16:21:42.851Z,18.20
2022-09-14T16:26:47.616Z,18.20
2022-09-14T16:31:51.066Z,18.20
2022-09-14T16:36:55.445Z,18.20
2022-09-14T16:42:00.038Z,18.10
2022-09-14T16:47:02.813Z,18.10
2022-09-14T16:52:05.569Z,18.10
2022-09-14T16:57:08.314Z,18.10
2022-09-14T17:02:11.874Z,18.00
2022-09-14T17:07:14.687Z,18.00
2022-09-14T17:12:17.311Z,18.00
2022-09-14T17:17:20.778Z,18.00
2022-09-14T17:22:23.443Z,17.90
2022-09-14T17:27:26.184Z,17.90
2022-09-14T17:32:28.894Z,17.90
2022-09-14T17:37:31.600Z,17.90
2022-09-14T17:42:34.240Z,17.90
2022-09-14T17:47:37.187Z,17.90
2022-09-14T17:52:39.946Z,17.80
2022-09-14T17:57:46.026Z,17.80
2022-09-14T18:02:51.950Z,17.80
2022-09-14T18:07:55.330Z,17.80
2022-09-14T18:12:58.078Z,17.80
2022-09-14T18:18:00.753Z,17.70
2022-09-14T18:23:03.473Z,17.70
2022-09-14T18:28:06.163Z,17.70
2022-09-14T18:33:08.867Z,17.70
2022-09-14T18:38:12.713Z,17.60
2022-09-14T18:43:18.287Z,17.60
2022-09-14T18:48:21.028Z,17.60
2022-09-14T18:53:23.799Z,17.60
2022-09-14T18:58:27.015Z,17.60
2022-09-14T19:03:33.500Z,17.50
2022-09-14T19:08:37.146Z,17.50
2022-09-14T19:13:40.073Z,17.40
2022-09-14T19:18:44.042Z,17.00
2022-09-14T19:23:47.162Z,16.90
2022-09-14T19:28:50.161Z,16.80
2022-09-14T19:33:53.694Z,16.80
2022-09-14T19:38:58.782Z,16.80
2022-09-14T19:44:02.249Z,16.60
2022-09-14T19:49:05.998Z,16.50
2022-09-14T19:54:10.776Z,16.20
2022-09-14T19:59:14.170Z,16.20
2022-09-14T20:04:18.439Z,16.10
2022-09-14T20:09:23.477Z,15.90
2022-09-14T20:14:27.049Z,15.70
2022-09-14T20:19:32.599Z,15.50
2022-09-14T20:24:36.013Z,15.40
2022-09-14T20:29:38.671Z,15.30
2022-09-14T20:34:41.324Z,15.40
2022-09-14T20:39:44.118Z,15.30
2022-09-14T20:44:46.840Z,15.30
2022-09-14T20:49:52.356Z,15.10
2022-09-14T20:54:55.014Z,15.10
2022-09-14T20:59:57.904Z,15.00
2022-09-14T21:05:00.590Z,14.90
2022-09-14T21:10:03.284Z,15.00
2022-09-14T21:15:06.240Z,15.00
2022-09-14T21:20:09.449Z,15.00
2022-09-14T21:25:12.160Z,15.00
2022-09-14T21:30:14.871Z,15.00
2022-09-14T21:35:19.040Z,15.00
2022-09-14T21:40:22.265Z,15.00
2022-09-14T21:45:25.001Z,14.90
2022-09-14T21:50:27.639Z,14.80
2022-09-14T21:55:30.263Z,14.80
2022-09-14T22:00:33.734Z,14.60
2022-09-14T22:05:36.383Z,14.70
2022-09-14T22:10:40.556Z,14.60
2022-09-14T22:15:43.478Z,14.60
2022-09-14T22:20:46.131Z,14.50
2022-09-14T22:25:48.736Z,14.50
2022-09-14T22:30:53.188Z,14.50
2022-09-14T22:35:58.217Z,14.50
2022-09-14T22:41:03.434Z,14.40
2022-09-14T22:46:07.448Z,14.30
2022-09-14T22:51:13.384Z,14.20
2022-09-14T22:56:31.633Z,14.20
2022-09-14T23:01:37.066Z,14.20
2022-09-14T23:06:42.974Z,14.20
2022-09-14T23:11:46.423Z,14.10
2022-09-14T23:16:49.160Z,14.00
2022-09-14T23:21:53.757Z,14.10
2022-09-14T23:26:56.520Z,14.00
2022-09-14T23:31:59.132Z,13.90
2022-09-14T23:37:01.836Z,13.90
2022-09-14T23:42:05.427Z,13.90
2022-09-14T23:47:08.260Z,14.00
2022-09-14T23:52:10.909Z,14.00
2022-09-14T23:57:13.531Z,13.90
